createdAt,value
2019-05-11T00:02:13.557Z,5.30
2019-05-11T00:04:43.831Z,6.30
2019-05-11T00:07:14.123Z,7.67
2019-05-11T00:09:57.413Z,7.47
2019-05-11T00:12:16.316Z,9.13
2019-05-11T00:14:47.565Z,5.87
2019-05-11T00:17:17.851Z,5.00
2019-05-11T00:19:48.108Z,5.73
2019-05-11T00:22:18.394Z,4.97
2019-05-11T00:24:48.663Z,3.93
2019-05-11T00:27:19.022Z,6.43
2019-05-11T00:29:49.386Z,4.67
2019-05-11T00:32:22.772Z,4.57
2019-05-11T00:34:51.561Z,3.97
2019-05-11T00:37:21.878Z,3.33
2019-05-11T00:39:52.140Z,3.33
2019-05-11T00:42:22.456Z,3.20
2019-05-11T00:44:52.727Z,5.47
2019-05-11T00:47:23.027Z,4.33
2019-05-11T00:49:53.288Z,5.07
2019-05-11T00:52:23.597Z,5.00
2019-05-11T00:54:53.909Z,5.17
2019-05-11T00:57:24.212Z,4.33
2019-05-11T00:59:54.511Z,3.97
2019-05-11T01:02:24.837Z,6.00
2019-05-11T01:04:56.081Z,4.40
2019-05-11T01:07:26.361Z,6.87
2019-05-11T01:09:56.659Z,5.40
2019-05-11T01:12:26.933Z,4.33
2019-05-11T01:14:57.245Z,5.97
2019-05-11T01:17:27.508Z,8.03
2019-05-11T01:19:57.812Z,6.03
2019-05-11T01:22:28.065Z,4.97
2019-05-11T01:24:58.367Z,5.03
2019-05-11T01:27:28.667Z,4.40
2019-05-11T01:29:58.951Z,2.90
2019-05-11T01:32:29.272Z,3.27
2019-05-11T01:34:59.553Z,3.50
2019-05-11T01:37:29.888Z,3.33
2019-05-11T01:40:00.183Z,3.23
2019-05-11T01:42:30.443Z,5.10
2019-05-11T01:45:00.725Z,3.80
2019-05-11T01:47:31.000Z,4.50
2019-05-11T01:50:01.327Z,3.73
2019-05-11T01:52:31.681Z,4.47
2019-05-11T01:55:01.964Z,5.27
2019-05-11T01:57:32.301Z,4.63
2019-05-11T02:00:02.626Z,4.70
2019-05-11T02:02:32.941Z,6.37
2019-05-11T02:05:20.835Z,5.50
2019-05-11T02:07:51.142Z,4.80
2019-05-11T02:10:21.443Z,4.33
2019-05-11T02:12:51.734Z,7.43
2019-05-11T02:15:22.034Z,4.77
2019-05-11T02:17:52.326Z,4.50
2019-05-11T02:20:22.619Z,4.07
2019-05-11T02:22:53.070Z,7.50
2019-05-11T02:25:23.437Z,9.53
2019-05-11T02:27:53.918Z,6.53
2019-05-11T02:30:24.446Z,4.70
2019-05-11T02:32:54.823Z,5.67
2019-05-11T02:35:25.151Z,4.13
2019-05-11T02:37:55.436Z,4.27
2019-05-11T02:40:26.045Z,4.30
2019-05-11T02:42:56.317Z,3.77
2019-05-11T02:45:39.741Z,4.37
2019-05-11T02:48:12.368Z,4.10
2019-05-11T02:50:44.673Z,5.07
2019-05-11T02:53:15.522Z,3.83
2019-05-11T02:55:47.391Z,3.33
2019-05-11T02:58:17.672Z,3.93
2019-05-11T03:00:48.049Z,3.57
2019-05-11T03:03:18.360Z,4.53
2019-05-11T03:05:48.637Z,4.10
2019-05-11T03:08:18.927Z,4.53
2019-05-11T03:10:49.243Z,3.73
2019-05-11T03:13:19.501Z,3.83
2019-05-11T03:15:49.793Z,3.50
2019-05-11T03:18:20.123Z,3.57
2019-05-11T03:20:50.412Z,4.67
2019-05-11T03:23:20.717Z,3.80
2019-05-11T03:25:51.000Z,3.63
2019-05-11T03:28:21.281Z,3.87
2019-05-11T03:30:51.601Z,3.07
2019-05-11T03:33:21.865Z,3.50
2019-05-11T03:35:52.189Z,4.07
2019-05-11T03:38:22.493Z,2.87
2019-05-11T03:40:52.739Z,3.20
2019-05-11T03:43:23.027Z,3.47
2019-05-11T03:45:53.286Z,2.60
2019-05-11T03:48:23.569Z,3.30
2019-05-11T03:50:53.829Z,3.10
2019-05-11T03:53:24.120Z,3.63
2019-05-11T03:55:54.407Z,3.50
2019-05-11T03:58:26.253Z,3.63
2019-05-11T04:00:56.714Z,3.87
2019-05-11T04:03:27.020Z,4.57
2019-05-11T04:05:57.302Z,3.10
2019-05-11T04:08:27.597Z,3.73
2019-05-11T04:10:57.861Z,6.33
2019-05-11T04:13:28.208Z,5.03
2019-05-11T04:15:58.497Z,5.53
2019-05-11T04:18:28.787Z,4.73
2019-05-11T04:20:59.061Z,5.93
2019-05-11T04:23:29.400Z,4.27
2019-05-11T04:25:59.732Z,4.27
2019-05-11T04:28:30.043Z,5.93
2019-05-11T04:31:00.335Z,4.57
2019-05-11T04:33:33.202Z,7.97
2019-05-11T04:36:02.586Z,6.93
2019-05-11T04:38:32.900Z,5.37
2019-05-11T04:41:03.190Z,8.13
2019-05-11T04:43:33.576Z,5.67
2019-05-11T04:46:03.856Z,5.93
2019-05-11T04:48:34.134Z,7.47
2019-05-11T04:51:04.442Z,5.77
2019-05-11T04:53:34.741Z,6.13
2019-05-11T04:56:05.014Z,7.13
2019-05-11T04:58:35.316Z,6.47
2019-05-11T05:01:05.639Z,8.47
2019-05-11T05:03:40.879Z,6.30
2019-05-11T05:06:22.333Z,9.40
2019-05-11T05:08:40.864Z,8.20
2019-05-11T05:11:11.153Z,6.43
2019-05-11T05:13:41.415Z,6.10
2019-05-11T05:16:11.757Z,6.53
2019-05-11T05:18:42.047Z,8.23
2019-05-11T05:21:12.369Z,6.63
2019-05-11T05:23:42.622Z,6.50
2019-05-11T05:26:12.908Z,7.40
2019-05-11T05:28:45.755Z,6.67
2019-05-11T05:31:15.292Z,6.63
2019-05-11T05:33:45.560Z,9.73
2019-05-11T05:36:15.970Z,6.63
2019-05-11T05:38:47.921Z,6.40
2019-05-11T05:41:18.403Z,8.20
2019-05-11T05:43:48.876Z,5.53
2019-05-11T05:46:19.293Z,6.23
2019-05-11T05:48:49.498Z,6.17
2019-05-11T05:51:19.882Z,4.80
2019-05-11T05:53:50.902Z,5.07
2019-05-11T05:56:21.275Z,5.23
2019-05-11T05:58:52.022Z,4.83
2019-05-11T06:01:22.510Z,4.90
2019-05-11T06:03:53.353Z,5.93
2019-05-11T06:06:23.669Z,5.10
2019-05-11T06:08:53.920Z,6.03
2019-05-11T06:11:25.538Z,4.50
2019-05-11T06:13:56.130Z,4.60
2019-05-11T06:16:26.403Z,6.47
2019-05-11T06:18:56.759Z,3.83
2019-05-11T06:21:27.069Z,4.37
2019-05-11T06:24:05.410Z,6.03
2019-05-11T06:26:30.280Z,3.70
2019-05-11T06:29:00.601Z,5.20
2019-05-11T06:31:32.922Z,5.50
2019-05-11T06:34:03.798Z,4.27
2019-05-11T06:36:34.139Z,4.10
2019-05-11T06:39:07.631Z,4.67
2019-05-11T06:41:37.982Z,5.77
2019-05-11T06:44:08.264Z,4.30
2019-05-11T06:46:38.637Z,4.23
2019-05-11T06:49:09.000Z,5.50
2019-05-11T06:51:40.622Z,4.93
2019-05-11T06:54:12.900Z,4.33
2019-05-11T06:56:44.153Z,4.83
2019-05-11T06:59:14.423Z,4.10
2019-05-11T07:01:44.732Z,4.33
2019-05-11T07:04:15.110Z,4.23
2019-05-11T07:06:45.500Z,4.53
2019-05-11T07:09:15.800Z,4.27
2019-05-11T07:11:46.079Z,5.83
2019-05-11T07:14:20.415Z,4.60
2019-05-11T07:16:48.275Z,3.30
2019-05-11T07:19:18.545Z,3.27
2019-05-11T07:21:48.999Z,4.80
2019-05-11T07:24:19.690Z,2.63
2019-05-11T07:26:50.035Z,3.53
2019-05-11T07:29:20.321Z,3.13
2019-05-11T07:31:50.965Z,2.70
2019-05-11T07:34:21.304Z,2.60
2019-05-11T07:36:51.593Z,3.20
2019-05-11T07:39:21.899Z,3.60
2019-05-11T07:41:52.157Z,2.07
2019-05-11T07:44:35.011Z,3.03
2019-05-11T07:46:54.327Z,2.20
2019-05-11T07:49:24.614Z,2.00
2019-05-11T07:51:54.890Z,2.00
2019-05-11T07:54:25.185Z,3.80
2019-05-11T07:56:58.206Z,3.40
2019-05-11T07:59:28.985Z,2.23
2019-05-11T08:01:59.365Z,1.97
2019-05-11T08:04:29.688Z,1.60
2019-05-11T08:06:59.980Z,1.87
2019-05-11T08:09:30.281Z,2.43
2019-05-11T08:12:00.544Z,2.90
2019-05-11T08:14:30.858Z,2.53
2019-05-11T08:17:01.205Z,1.90
2019-05-11T08:19:31.498Z,1.90
2019-05-11T08:22:01.790Z,2.10
2019-05-11T08:24:32.160Z,2.00
2019-05-11T08:27:02.437Z,3.57
2019-05-11T08:29:32.728Z,2.80
2019-05-11T08:32:03.049Z,1.97
2019-05-11T08:34:33.354Z,2.10
2019-05-11T08:37:04.599Z,2.67
2019-05-11T08:39:34.894Z,3.50
2019-05-11T08:42:05.167Z,2.70
2019-05-11T08:44:37.843Z,3.23
2019-05-11T08:47:08.513Z,3.53
2019-05-11T08:49:38.935Z,2.73
2019-05-11T08:52:09.194Z,2.83
2019-05-11T08:54:39.468Z,2.57
2019-05-11T08:57:09.723Z,2.00
2019-05-11T08:59:40.026Z,2.67
2019-05-11T09:02:10.274Z,2.73
2019-05-11T09:04:42.081Z,2.43
2019-05-11T09:07:13.461Z,1.90
2019-05-11T09:09:43.750Z,2.87
2019-05-11T09:12:14.101Z,1.40
2019-05-11T09:14:47.708Z,1.03
2019-05-11T09:17:18.253Z,1.20
2019-05-11T09:19:48.607Z,1.20
2019-05-11T09:22:18.937Z,1.30
2019-05-11T09:24:49.232Z,1.00
2019-05-11T09:27:19.483Z,1.73
2019-05-11T09:29:49.781Z,1.20
2019-05-11T09:32:21.021Z,1.40
2019-05-11T09:34:51.318Z,1.47
2019-05-11T09:37:21.620Z,0.90
2019-05-11T09:39:51.939Z,1.43
2019-05-11T09:42:22.226Z,1.47
2019-05-11T09:44:52.500Z,2.50
2019-05-11T09:47:22.818Z,0.83
2019-05-11T09:49:53.106Z,1.43
2019-05-11T09:52:23.376Z,2.77
2019-05-11T09:54:53.672Z,5.73
2019-05-11T09:57:23.930Z,4.23
2019-05-11T09:59:54.233Z,1.70
2019-05-11T10:02:24.514Z,2.97
2019-05-11T10:04:54.850Z,3.00
2019-05-11T10:07:25.104Z,3.60
2019-05-11T10:09:55.445Z,1.60
2019-05-11T10:12:25.817Z,0.83
2019-05-11T10:14:56.097Z,0.83
2019-05-11T10:17:28.649Z,1.60
2019-05-11T10:19:58.463Z,0.80
2019-05-11T10:22:28.696Z,1.60
2019-05-11T10:24:58.992Z,2.50
2019-05-11T10:27:29.332Z,1.40
2019-05-11T10:29:59.661Z,1.37
2019-05-11T10:32:29.950Z,1.30
2019-05-11T10:35:00.336Z,1.10
2019-05-11T10:37:30.601Z,1.73
2019-05-11T10:40:00.916Z,1.27
2019-05-11T10:42:31.188Z,0.80
2019-05-11T10:45:01.544Z,1.30
2019-05-11T10:47:32.656Z,1.60
2019-05-11T10:50:02.988Z,1.40
2019-05-11T10:52:33.379Z,0.90
2019-05-11T10:55:03.681Z,0.90
2019-05-11T10:57:34.044Z,1.10
2019-05-11T11:00:05.484Z,1.00
2019-05-11T11:02:38.228Z,0.90
2019-05-11T11:05:08.383Z,2.33
2019-05-11T11:07:38.745Z,0.80
2019-05-11T11:10:09.305Z,0.70
2019-05-11T11:12:39.656Z,1.63
2019-05-11T11:15:11.117Z,0.80
2019-05-11T11:17:41.463Z,1.73
2019-05-11T11:20:12.172Z,2.70
2019-05-11T11:22:44.243Z,0.97
2019-05-11T11:25:14.569Z,1.80
2019-05-11T11:27:44.907Z,1.57
2019-05-11T11:30:17.981Z,3.60
2019-05-11T11:32:48.234Z,5.73
2019-05-11T11:35:18.953Z,1.90
2019-05-11T11:37:50.323Z,4.10
2019-05-11T11:40:20.584Z,0.97
2019-05-11T11:42:50.881Z,4.20
2019-05-11T11:45:23.568Z,1.20
2019-05-11T11:47:54.615Z,1.10
2019-05-11T11:50:28.490Z,1.53
2019-05-11T11:52:59.382Z,2.47
2019-05-11T11:55:30.004Z,1.70
2019-05-11T11:58:00.852Z,1.10
2019-05-11T12:00:31.651Z,1.73
2019-05-11T12:03:01.946Z,3.07
2019-05-11T12:05:32.238Z,2.60
2019-05-11T12:08:02.492Z,1.60
2019-05-11T12:10:32.785Z,1.30
2019-05-11T12:13:03.737Z,1.10
2019-05-11T12:15:34.021Z,1.20
2019-05-11T12:18:05.128Z,1.10
2019-05-11T12:20:36.194Z,1.37
2019-05-11T12:23:08.788Z,1.77
2019-05-11T12:25:40.646Z,4.40
2019-05-11T12:28:12.339Z,1.83
2019-05-11T12:30:42.653Z,2.70
2019-05-11T12:33:18.543Z,2.60
2019-05-11T12:35:58.655Z,1.07
2019-05-11T12:38:45.474Z,2.33
2019-05-11T12:41:24.452Z,2.00
2019-05-11T12:43:55.081Z,1.83
2019-05-11T12:46:27.674Z,2.37
2019-05-11T12:48:59.245Z,1.70
2019-05-11T12:51:29.739Z,3.80
2019-05-11T12:54:00.041Z,3.00
2019-05-11T12:56:30.325Z,4.00
2019-05-11T12:59:00.609Z,5.23
2019-05-11T13:01:30.890Z,3.10
2019-05-11T13:04:01.226Z,1.77
2019-05-11T13:06:31.485Z,1.50
2019-05-11T13:09:01.775Z,1.53
2019-05-11T13:11:32.218Z,2.37
2019-05-11T13:14:02.524Z,2.40
2019-05-11T13:16:32.837Z,2.23
2019-05-11T13:19:03.118Z,2.37
2019-05-11T13:21:33.387Z,1.73
2019-05-11T13:24:03.681Z,3.00
2019-05-11T13:26:33.958Z,4.03
2019-05-11T13:29:04.235Z,2.57
2019-05-11T13:31:34.503Z,1.73
2019-05-11T13:34:04.818Z,1.70
2019-05-11T13:36:35.148Z,2.10
2019-05-11T13:39:08.872Z,3.67
2019-05-11T13:41:39.340Z,2.43
2019-05-11T13:44:09.630Z,2.03
2019-05-11T13:46:39.910Z,1.53
2019-05-11T13:49:10.302Z,1.70
2019-05-11T13:51:40.657Z,2.27
2019-05-11T13:54:11.340Z,3.00
2019-05-11T13:56:42.880Z,2.67
2019-05-11T13:59:14.202Z,1.60
2019-05-11T14:01:44.781Z,1.77
2019-05-11T14:04:15.090Z,2.77
2019-05-11T14:06:47.964Z,1.67
2019-05-11T14:09:18.621Z,1.60
2019-05-11T14:11:49.439Z,1.83
2019-05-11T14:14:19.689Z,1.63
2019-05-11T14:16:50.487Z,2.67
2019-05-11T14:19:21.965Z,2.53
2019-05-11T14:21:52.274Z,1.80
2019-05-11T14:24:22.605Z,3.37
2019-05-11T14:26:52.919Z,3.60
2019-05-11T14:29:23.233Z,6.37
2019-05-11T14:31:54.079Z,7.37
2019-05-11T14:34:24.352Z,4.17
2019-05-11T14:36:54.692Z,3.97
2019-05-11T14:39:25.021Z,10.13
2019-05-11T14:41:55.481Z,6.50
2019-05-11T14:44:28.343Z,2.30
2019-05-11T14:46:59.230Z,7.33
2019-05-11T14:49:29.659Z,5.87
2019-05-11T14:51:59.984Z,2.70
2019-05-11T14:54:30.382Z,2.00
2019-05-11T14:57:00.712Z,1.90
2019-05-11T14:59:30.958Z,5.57
2019-05-11T15:02:03.984Z,8.30
2019-05-11T15:04:34.471Z,5.50
2019-05-11T15:07:05.830Z,3.23
2019-05-11T15:09:37.668Z,5.30
2019-05-11T15:12:08.659Z,5.47
2019-05-11T15:14:38.956Z,3.97
2019-05-11T15:17:09.290Z,5.23
2019-05-11T15:19:39.923Z,3.70
2019-05-11T15:22:10.431Z,5.77
2019-05-11T15:24:40.829Z,4.20
2019-05-11T15:27:11.113Z,7.50
2019-05-11T15:29:41.380Z,5.33
2019-05-11T15:32:11.862Z,6.33
2019-05-11T15:34:42.160Z,4.90
2019-05-11T15:37:12.777Z,9.60
2019-05-11T15:39:43.045Z,4.20
2019-05-11T15:42:16.956Z,4.23
2019-05-11T15:44:45.470Z,3.07
2019-05-11T15:47:15.774Z,2.63
2019-05-11T15:49:48.426Z,3.17
2019-05-11T15:52:18.843Z,3.40
2019-05-11T15:54:51.177Z,3.57
2019-05-11T15:57:21.578Z,3.40
2019-05-11T15:59:51.841Z,2.57
2019-05-11T16:02:22.140Z,2.97
2019-05-11T16:04:52.449Z,3.10
2019-05-11T16:07:22.739Z,2.80
2019-05-11T16:09:53.043Z,3.23
2019-05-11T16:12:23.319Z,4.47
2019-05-11T16:14:53.591Z,5.10
2019-05-11T16:17:23.901Z,3.80
2019-05-11T16:19:54.155Z,2.60
2019-05-11T16:22:24.460Z,2.47
2019-05-11T16:24:54.724Z,2.63
2019-05-11T16:27:25.027Z,2.87
2019-05-11T16:29:55.301Z,2.97
2019-05-11T16:32:27.628Z,2.80
2019-05-11T16:34:57.616Z,2.87
2019-05-11T16:37:29.335Z,4.83
2019-05-11T16:39:59.629Z,4.90
2019-05-11T16:42:30.682Z,6.70
2019-05-11T16:45:00.984Z,7.70
2019-05-11T16:47:31.239Z,8.40
2019-05-11T16:50:01.536Z,4.90
2019-05-11T16:52:31.773Z,4.93
2019-05-11T16:55:03.048Z,8.60
2019-05-11T16:57:33.306Z,10.40
2019-05-11T17:00:03.651Z,9.13
2019-05-11T17:02:33.906Z,9.00
2019-05-11T17:05:04.395Z,12.60
2019-05-11T17:07:34.686Z,14.27
2019-05-11T17:10:05.308Z,17.13
2019-05-11T17:12:35.574Z,17.30
2019-05-11T17:15:08.673Z,17.23
2019-05-11T17:17:38.531Z,19.33
2019-05-11T17:20:09.578Z,16.00
2019-05-11T17:22:39.904Z,18.33
2019-05-11T17:25:10.200Z,16.30
2019-05-11T17:27:40.552Z,17.70
2019-05-11T17:30:11.844Z,15.23
2019-05-11T17:32:42.130Z,14.10
2019-05-11T17:35:12.523Z,13.97
2019-05-11T17:37:42.805Z,16.63
2019-05-11T17:40:13.944Z,15.60
2019-05-11T17:42:44.218Z,14.20
2019-05-11T17:45:14.521Z,14.03
2019-05-11T17:47:44.783Z,14.10
2019-05-11T17:50:15.326Z,14.50
2019-05-11T17:52:47.752Z,16.17
2019-05-11T17:55:18.475Z,13.23
2019-05-11T17:57:51.605Z,12.47
2019-05-11T18:00:21.735Z,12.73
2019-05-11T18:02:52.274Z,12.07
2019-05-11T18:05:22.827Z,12.77
2019-05-11T18:07:53.648Z,12.30
2019-05-11T18:10:24.431Z,10.67
2019-05-11T18:12:54.945Z,9.13
2019-05-11T18:15:25.535Z,5.67
2019-05-11T18:17:58.627Z,5.90
2019-05-11T18:20:28.640Z,8.83
2019-05-11T18:22:59.391Z,4.87
2019-05-11T18:25:31.210Z,6.57
2019-05-11T18:28:01.821Z,5.27
2019-05-11T18:30:33.196Z,7.17
2019-05-11T18:33:08.311Z,5.53
2019-05-11T18:35:38.929Z,6.77
2019-05-11T18:38:09.460Z,8.37
2019-05-11T18:40:40.144Z,9.73
2019-05-11T18:43:13.374Z,6.70
2019-05-11T18:45:43.715Z,6.67
2019-05-11T18:48:14.057Z,7.57
2019-05-11T18:50:45.940Z,7.17
2019-05-11T18:53:24.618Z,6.20
2019-05-11T18:56:21.124Z,6.87
2019-05-11T18:58:53.923Z,5.43
2019-05-11T19:01:25.251Z,5.97
2019-05-11T19:03:55.894Z,4.93
2019-05-11T19:06:28.464Z,12.47
2019-05-11T19:08:58.296Z,30.27
2019-05-11T19:11:29.044Z,8.57
2019-05-11T19:13:59.453Z,10.93
2019-05-11T19:16:29.746Z,11.73
2019-05-11T19:19:00.298Z,10.63
2019-05-11T19:21:31.695Z,11.00
2019-05-11T19:24:01.967Z,7.53
2019-05-11T19:26:32.298Z,6.20
2019-05-11T19:29:02.651Z,6.87
2019-05-11T19:31:33.307Z,7.07
2019-05-11T19:34:04.799Z,9.73
2019-05-11T19:36:38.055Z,10.00
2019-05-11T19:39:11.213Z,12.30
2019-05-11T19:41:44.915Z,10.80
2019-05-11T19:44:15.607Z,12.07
2019-05-11T19:46:47.707Z,11.03
2019-05-11T19:49:18.970Z,11.73
2019-05-11T19:51:49.479Z,13.47
2019-05-11T19:54:19.752Z,8.63
2019-05-11T19:56:52.411Z,7.20
2019-05-11T19:59:22.506Z,11.53
2019-05-11T20:01:53.006Z,9.93
2019-05-11T20:04:23.440Z,7.40
2019-05-11T20:07:08.588Z,7.20
2019-05-11T20:09:38.824Z,8.07
2019-05-11T20:12:09.521Z,7.07
2019-05-11T20:14:39.956Z,11.73
2019-05-11T20:17:13.368Z,9.63
2019-05-11T20:19:45.557Z,8.03
2019-05-11T20:22:18.114Z,12.43
2019-05-11T20:24:49.031Z,10.33
2019-05-11T20:27:19.390Z,10.50
2019-05-11T20:29:50.857Z,10.93
2019-05-11T20:32:21.226Z,11.57
2019-05-11T20:34:51.654Z,10.87
2019-05-11T20:37:22.615Z,11.67
2019-05-11T20:39:58.454Z,12.67
2019-05-11T20:42:24.927Z,15.60
2019-05-11T20:44:55.273Z,7.67
2019-05-11T20:47:25.625Z,10.03
2019-05-11T20:49:55.954Z,12.37
2019-05-11T20:52:28.295Z,11.37
2019-05-11T20:54:58.357Z,10.90
2019-05-11T20:57:29.984Z,11.17
2019-05-11T21:00:01.317Z,10.47
2019-05-11T21:02:32.255Z,11.10
2019-05-11T21:05:02.664Z,11.90
2019-05-11T21:07:34.060Z,10.47
2019-05-11T21:10:04.733Z,15.13
2019-05-11T21:12:35.034Z,13.23
2019-05-11T21:15:06.484Z,12.77
2019-05-11T21:17:36.869Z,13.83
2019-05-11T21:20:07.754Z,13.47
2019-05-11T21:22:40.441Z,11.17
2019-05-11T21:25:10.167Z,10.77
2019-05-11T21:27:40.424Z,10.47
2019-05-11T21:30:11.149Z,13.07
2019-05-11T21:32:41.417Z,15.47
2019-05-11T21:35:11.721Z,14.13
2019-05-11T21:37:41.994Z,12.90
2019-05-11T21:40:12.392Z,11.53
2019-05-11T21:42:42.668Z,13.00
2019-05-11T21:45:12.976Z,10.83
2019-05-11T21:47:43.269Z,13.73
2019-05-11T21:50:13.572Z,11.07
2019-05-11T21:52:43.844Z,12.23
